createdAt,value
2017-12-14T00:00:12.339Z,25.96
2017-12-14T00:01:12.299Z,26.81
2017-12-14T00:02:12.257Z,21.69
2017-12-14T00:03:12.643Z,23.49
2017-12-14T00:04:12.183Z,20.56
2017-12-14T00:05:12.130Z,19.99
2017-12-14T00:06:12.088Z,25.29
2017-12-14T00:07:12.054Z,16.96
2017-12-14T00:08:12.014Z,21.88
2017-12-14T00:09:11.969Z,23.40
2017-12-14T00:10:11.927Z,18.76
2017-12-14T00:11:11.880Z,21.98
2017-12-14T00:12:11.836Z,23.97
2017-12-14T00:13:11.796Z,22.45
2017-12-14T00:14:11.762Z,24.44
2017-12-14T00:15:11.718Z,21.22
2017-12-14T00:16:11.676Z,21.88
2017-12-14T00:17:11.626Z,27.85
2017-12-14T00:18:11.584Z,30.41
2017-12-14T00:19:11.541Z,28.14
2017-12-14T00:20:11.498Z,23.97
2017-12-14T00:21:11.456Z,29.37
2017-12-14T00:22:11.414Z,29.56
2017-12-14T00:23:11.372Z,21.41
2017-12-14T00:24:11.331Z,31.45
2017-12-14T00:25:11.290Z,20.65
2017-12-14T00:26:11.246Z,23.68
2017-12-14T00:27:11.208Z,22.92
2017-12-14T00:28:11.165Z,23.11
2017-12-14T00:29:11.122Z,19.13
2017-12-14T00:30:11.091Z,23.30
2017-12-14T00:31:11.040Z,29.08
2017-12-14T00:32:10.996Z,31.45
2017-12-14T00:33:10.954Z,29.56
2017-12-14T00:34:10.912Z,30.69
2017-12-14T00:35:10.883Z,25.77
2017-12-14T00:36:10.835Z,32.40
2017-12-14T00:37:10.788Z,31.17
2017-12-14T00:38:10.743Z,26.24
2017-12-14T00:39:10.707Z,28.23
2017-12-14T00:40:10.660Z,18.19
2017-12-14T00:41:10.626Z,19.13
2017-12-14T00:42:10.580Z,30.03
2017-12-14T00:43:10.535Z,24.54
2017-12-14T00:44:10.504Z,27.38
2017-12-14T00:45:10.454Z,18.66
2017-12-14T00:46:10.415Z,25.29
2017-12-14T00:47:10.380Z,21.69
2017-12-14T00:48:10.326Z,21.69
2017-12-14T00:49:10.287Z,27.00
2017-12-14T00:50:10.262Z,25.77
2017-12-14T00:51:10.205Z,25.58
2017-12-14T00:52:10.177Z,19.04
2017-12-14T00:53:10.120Z,16.30
2017-12-14T00:54:10.079Z,16.30
2017-12-14T00:55:10.036Z,20.47
2017-12-14T00:56:09.991Z,16.01
2017-12-14T00:57:09.953Z,20.18
2017-12-14T00:58:09.909Z,17.52
2017-12-14T00:59:09.865Z,13.92
2017-12-14T01:00:09.826Z,6.73
2017-12-14T01:01:09.783Z,8.53
2017-12-14T01:02:09.743Z,19.23
2017-12-14T01:03:09.701Z,12.60
2017-12-14T01:04:09.682Z,8.62
2017-12-14T01:05:09.622Z,8.72
2017-12-14T01:06:09.578Z,15.34
2017-12-14T01:07:09.540Z,7.76
2017-12-14T01:08:09.491Z,15.82
2017-12-14T01:09:09.449Z,8.43
2017-12-14T01:10:09.406Z,5.97
2017-12-14T01:11:09.375Z,5.87
2017-12-14T01:12:09.324Z,8.15
2017-12-14T01:13:09.287Z,12.70
2017-12-14T01:14:09.244Z,13.08
2017-12-14T01:15:09.200Z,6.26
2017-12-14T01:16:09.161Z,13.26
2017-12-14T01:17:09.119Z,7.39
2017-12-14T01:18:09.072Z,6.63
2017-12-14T01:19:09.041Z,7.20
2017-12-14T01:20:08.988Z,13.35
2017-12-14T01:21:08.951Z,7.01
2017-12-14T01:22:08.911Z,5.11
2017-12-14T01:23:08.875Z,7.57
2017-12-14T01:24:08.825Z,3.88
2017-12-14T01:25:08.795Z,1.89
2017-12-14T01:26:08.738Z,1.32
2017-12-14T01:27:08.696Z,2.65
2017-12-14T01:28:08.654Z,1.61
2017-12-14T01:29:08.622Z,1.89
2017-12-14T01:30:08.580Z,0.00
2017-12-14T01:31:08.532Z,0.00
2017-12-14T01:32:08.492Z,0.00
2017-12-14T01:33:08.447Z,0.00
2017-12-14T01:34:08.403Z,0.00
2017-12-14T01:35:08.363Z,0.00
2017-12-14T01:36:08.323Z,0.00
2017-12-14T01:37:08.281Z,0.00
2017-12-14T01:38:08.238Z,0.00
2017-12-14T01:39:08.208Z,0.00
2017-12-14T01:40:08.166Z,0.00
2017-12-14T01:41:08.114Z,0.00
2017-12-14T01:42:08.070Z,0.00
2017-12-14T01:43:08.028Z,0.00
2017-12-14T01:44:07.988Z,0.00
2017-12-14T01:45:07.948Z,0.00
2017-12-14T01:46:07.908Z,0.00
2017-12-14T01:47:07.857Z,0.00
2017-12-14T01:48:07.814Z,0.00
2017-12-14T01:49:07.776Z,0.00
2017-12-14T01:50:07.732Z,0.00
2017-12-14T01:51:07.690Z,0.00
2017-12-14T01:52:07.648Z,0.00
2017-12-14T01:53:07.605Z,0.00
2017-12-14T01:54:07.564Z,0.00
2017-12-14T01:55:07.522Z,0.00
2017-12-14T01:56:07.481Z,0.00
2017-12-14T01:57:07.447Z,0.00
2017-12-14T01:58:07.410Z,0.00
2017-12-14T01:59:07.364Z,0.00
2017-12-14T02:00:07.317Z,0.00
2017-12-14T02:01:07.271Z,0.00
2017-12-14T02:02:07.228Z,0.00
2017-12-14T02:03:07.195Z,0.00
2017-12-14T02:04:07.143Z,0.00
2017-12-14T02:05:07.101Z,0.00
2017-12-14T02:06:07.060Z,0.00
2017-12-14T02:07:07.043Z,0.00
2017-12-14T02:08:06.977Z,0.00
2017-12-14T02:09:06.934Z,0.00
2017-12-14T02:10:06.893Z,0.00
2017-12-14T02:11:06.866Z,0.00
2017-12-14T02:12:06.813Z,0.00
2017-12-14T02:13:06.767Z,0.00
2017-12-14T02:14:06.727Z,0.00
2017-12-14T02:15:06.681Z,0.00
2017-12-14T02:16:06.662Z,0.00
2017-12-14T02:17:06.596Z,0.00
2017-12-14T02:18:06.565Z,0.00
2017-12-14T02:19:06.524Z,0.00
2017-12-14T02:20:06.472Z,0.00
2017-12-14T02:21:06.434Z,0.00
2017-12-14T02:22:06.395Z,0.00
2017-12-14T02:23:06.358Z,0.00
2017-12-14T02:24:06.312Z,0.00
2017-12-14T02:25:06.268Z,0.00
2017-12-14T02:26:06.219Z,0.00
2017-12-14T02:27:06.181Z,0.00
2017-12-14T02:28:06.138Z,0.00
2017-12-14T02:29:06.091Z,0.00
2017-12-14T02:30:06.047Z,0.00
2017-12-14T02:31:06.012Z,0.00
2017-12-14T02:32:06.661Z,0.00
2017-12-14T02:33:05.930Z,0.00
2017-12-14T02:34:05.884Z,0.00
2017-12-14T02:35:05.837Z,0.00
2017-12-14T02:36:05.798Z,0.00
2017-12-14T02:37:05.758Z,0.00
2017-12-14T02:38:05.712Z,0.00
2017-12-14T02:39:05.673Z,0.00
2017-12-14T02:40:05.636Z,0.00
2017-12-14T02:41:05.587Z,0.00
2017-12-14T02:42:05.546Z,0.00
2017-12-14T02:43:05.506Z,0.00
2017-12-14T02:44:05.463Z,0.00
2017-12-14T02:45:05.419Z,0.00
2017-12-14T02:46:05.375Z,0.00
2017-12-14T02:47:05.337Z,0.00
2017-12-14T02:48:05.288Z,0.00
2017-12-14T02:49:05.250Z,0.00
2017-12-14T02:50:05.211Z,0.00
2017-12-14T02:51:05.165Z,0.00
2017-12-14T02:52:05.131Z,0.00
2017-12-14T02:53:05.082Z,0.00
2017-12-14T02:54:05.040Z,0.00
2017-12-14T02:55:04.996Z,0.00
2017-12-14T02:56:04.957Z,0.00
2017-12-14T02:57:04.913Z,0.00
2017-12-14T02:58:04.872Z,0.00
2017-12-14T02:59:04.830Z,0.00
2017-12-14T03:00:04.788Z,0.00
2017-12-14T03:01:04.749Z,0.00
2017-12-14T03:02:04.711Z,0.00
2017-12-14T03:03:04.660Z,0.00
2017-12-14T03:04:04.625Z,0.00
2017-12-14T03:05:04.582Z,0.00
2017-12-14T03:06:04.535Z,0.00
2017-12-14T03:07:04.498Z,0.00
2017-12-14T03:08:04.456Z,0.00
2017-12-14T03:09:04.417Z,0.00
2017-12-14T03:10:04.369Z,0.00
2017-12-14T03:11:04.326Z,0.00
2017-12-14T03:12:04.287Z,0.00
2017-12-14T03:13:04.243Z,0.00
2017-12-14T03:14:04.254Z,0.00
2017-12-14T03:15:04.160Z,0.00
2017-12-14T03:16:04.121Z,0.00
2017-12-14T03:17:04.078Z,0.00
2017-12-14T03:18:04.043Z,0.00
2017-12-14T03:19:03.998Z,0.00
2017-12-14T03:20:03.960Z,0.00
2017-12-14T03:21:03.920Z,0.00
2017-12-14T03:22:03.869Z,0.00
2017-12-14T03:23:03.827Z,0.00
2017-12-14T03:24:04.667Z,0.00
2017-12-14T03:25:03.745Z,0.00
2017-12-14T03:26:03.704Z,0.00
2017-12-14T03:27:03.667Z,0.00
2017-12-14T03:28:03.620Z,0.00
2017-12-14T03:29:03.594Z,0.00
2017-12-14T03:30:03.539Z,0.00
2017-12-14T03:31:03.492Z,0.00
2017-12-14T03:32:03.453Z,0.00
2017-12-14T03:33:03.407Z,0.00
2017-12-14T03:34:03.368Z,0.00
2017-12-14T03:35:03.323Z,0.00
2017-12-14T03:36:03.284Z,0.00
2017-12-14T03:37:03.247Z,0.00
2017-12-14T03:38:03.209Z,0.00
2017-12-14T03:39:03.159Z,0.00
2017-12-14T03:40:03.117Z,0.00
2017-12-14T03:41:03.074Z,0.00
2017-12-14T03:42:03.039Z,0.00
2017-12-14T03:43:02.994Z,0.00
2017-12-14T03:44:02.951Z,0.00
2017-12-14T03:45:02.913Z,0.00
2017-12-14T03:46:02.872Z,0.00
2017-12-14T03:47:02.828Z,0.00
2017-12-14T03:48:02.788Z,0.00
2017-12-14T03:49:02.744Z,0.00
2017-12-14T03:50:02.716Z,0.00
2017-12-14T03:51:02.659Z,0.00
2017-12-14T03:52:02.619Z,0.00
2017-12-14T03:53:02.577Z,0.00
2017-12-14T03:54:02.539Z,0.00
2017-12-14T03:55:02.495Z,0.00
2017-12-14T03:56:02.453Z,0.00
2017-12-14T03:57:02.412Z,0.00
2017-12-14T03:58:02.373Z,0.00
2017-12-14T03:59:02.329Z,0.00
2017-12-14T04:00:02.285Z,0.00
2017-12-14T04:01:02.246Z,0.00
2017-12-14T04:02:02.207Z,0.00
2017-12-14T04:03:02.676Z,0.00
2017-12-14T04:04:02.123Z,0.00
2017-12-14T04:05:02.080Z,0.00
2017-12-14T04:06:02.067Z,0.00
2017-12-14T04:07:01.998Z,0.00
2017-12-14T04:08:01.957Z,0.00
2017-12-14T04:09:01.921Z,0.00
2017-12-14T04:10:01.879Z,0.00
2017-12-14T04:11:01.835Z,0.00
2017-12-14T04:12:01.791Z,0.00
2017-12-14T04:13:01.770Z,0.00
2017-12-14T04:14:01.711Z,0.00
2017-12-14T04:15:01.673Z,0.00
2017-12-14T04:16:01.628Z,0.00
2017-12-14T04:17:01.589Z,0.00
2017-12-14T04:18:01.545Z,0.66
2017-12-14T04:19:01.522Z,0.00
2017-12-14T04:20:01.484Z,1.99
2017-12-14T04:21:01.423Z,3.98
2017-12-14T04:22:01.381Z,5.78
2017-12-14T04:23:01.339Z,6.07
2017-12-14T04:24:01.304Z,2.66
2017-12-14T04:25:01.260Z,0.00
2017-12-14T04:26:01.215Z,0.00
2017-12-14T04:27:01.174Z,0.00
2017-12-14T04:28:01.144Z,0.00
2017-12-14T04:29:01.092Z,1.61
2017-12-14T04:30:01.053Z,0.00
2017-12-14T04:31:01.012Z,0.00
2017-12-14T04:32:00.969Z,1.14
2017-12-14T04:33:00.929Z,6.07
2017-12-14T04:34:00.886Z,0.09
2017-12-14T04:35:00.845Z,0.00
2017-12-14T04:36:00.807Z,0.00
2017-12-14T04:37:00.765Z,0.00
2017-12-14T04:38:00.721Z,0.00
2017-12-14T04:39:00.687Z,0.00
2017-12-14T04:40:00.642Z,4.74
2017-12-14T04:41:00.598Z,3.41
2017-12-14T04:42:00.556Z,3.31
2017-12-14T04:43:00.518Z,2.94
2017-12-14T04:44:00.486Z,6.63
2017-12-14T04:45:00.441Z,8.15
2017-12-14T04:46:00.420Z,9.29
2017-12-14T04:47:00.355Z,5.12
2017-12-14T04:48:00.320Z,7.68
2017-12-14T04:49:00.272Z,5.50
2017-12-14T04:50:00.227Z,4.93
2017-12-14T04:51:00.191Z,5.88
2017-12-14T04:52:00.157Z,2.56
2017-12-14T04:53:00.114Z,5.78
2017-12-14T04:54:00.070Z,4.08
2017-12-14T04:55:00.030Z,4.17
2017-12-14T04:55:59.982Z,5.59
2017-12-14T04:57:00.003Z,8.82
2017-12-14T04:57:59.936Z,3.31
2017-12-14T04:58:59.894Z,2.94
2017-12-14T04:59:59.901Z,0.95
2017-12-14T05:00:59.782Z,3.03
2017-12-14T05:01:59.753Z,8.25
2017-12-14T05:02:59.709Z,3.03
2017-12-14T05:03:59.654Z,6.63
2017-12-14T05:04:59.614Z,9.95
2017-12-14T05:05:59.589Z,7.68
2017-12-14T05:06:59.538Z,10.71
2017-12-14T05:07:59.494Z,7.97
2017-12-14T05:08:59.448Z,9.20
2017-12-14T05:09:59.409Z,8.72
2017-12-14T05:10:59.365Z,4.93
2017-12-14T05:11:59.329Z,5.40
2017-12-14T05:12:59.286Z,12.04
2017-12-14T05:13:59.245Z,9.95
2017-12-14T05:14:59.206Z,11.10
2017-12-14T05:15:59.162Z,7.78
2017-12-14T05:16:59.124Z,4.27
2017-12-14T05:17:59.081Z,10.14
2017-12-14T05:18:59.057Z,9.01
2017-12-14T05:19:58.999Z,11.19
2017-12-14T05:20:58.957Z,9.48
2017-12-14T05:21:58.921Z,17.45
2017-12-14T05:22:58.881Z,12.71
2017-12-14T05:23:58.835Z,10.14
2017-12-14T05:24:58.805Z,9.95
2017-12-14T05:25:58.749Z,7.01
2017-12-14T05:26:58.711Z,7.30
2017-12-14T05:27:58.674Z,8.91
2017-12-14T05:28:58.627Z,6.92
2017-12-14T05:29:58.587Z,4.74
2017-12-14T05:30:58.543Z,11.85
2017-12-14T05:31:58.504Z,8.91
2017-12-14T05:32:58.466Z,5.31
2017-12-14T05:33:58.425Z,4.46
2017-12-14T05:34:58.380Z,9.48
2017-12-14T05:35:58.343Z,9.01
2017-12-14T05:36:58.303Z,16.41
2017-12-14T05:37:58.259Z,11.38
2017-12-14T05:38:58.264Z,14.79
2017-12-14T05:39:58.178Z,20.57
2017-12-14T05:40:58.137Z,8.91
2017-12-14T05:41:58.097Z,11.29
2017-12-14T05:42:58.072Z,13.46
2017-12-14T05:43:58.015Z,12.04
2017-12-14T05:44:57.973Z,17.92
2017-12-14T05:45:57.946Z,17.45
2017-12-14T05:46:57.891Z,16.12
2017-12-14T05:47:57.852Z,10.91
2017-12-14T05:48:57.811Z,21.53
2017-12-14T05:49:57.774Z,16.97
2017-12-14T05:50:57.738Z,20.48
2017-12-14T05:51:57.689Z,14.89
2017-12-14T05:52:57.651Z,14.04
2017-12-14T05:53:57.603Z,9.01
2017-12-14T05:54:57.624Z,7.87
2017-12-14T05:55:57.532Z,13.09
2017-12-14T05:56:57.483Z,11.47
2017-12-14T05:57:57.444Z,16.97
2017-12-14T05:58:57.440Z,7.20
2017-12-14T05:59:57.373Z,12.80
2017-12-14T06:00:57.320Z,22.38
2017-12-14T06:01:57.283Z,20.01
2017-12-14T06:02:57.247Z,21.62
2017-12-14T06:03:57.205Z,15.94
2017-12-14T06:04:57.159Z,14.70
2017-12-14T06:05:57.120Z,19.15
2017-12-14T06:06:57.075Z,15.66
2017-12-14T06:07:57.038Z,14.03
2017-12-14T06:08:57.013Z,21.72
2017-12-14T06:09:56.952Z,17.07
2017-12-14T06:10:56.916Z,12.80
2017-12-14T06:11:56.875Z,19.06
2017-12-14T06:12:56.830Z,23.43
2017-12-14T06:13:56.788Z,14.51
2017-12-14T06:14:56.747Z,14.98
2017-12-14T06:15:56.719Z,17.16
2017-12-14T06:16:56.667Z,13.28
2017-12-14T06:17:56.626Z,12.52
2017-12-14T06:18:56.590Z,19.73
2017-12-14T06:19:56.567Z,17.16
2017-12-14T06:20:56.502Z,23.61
2017-12-14T06:21:56.464Z,21.72
2017-12-14T06:22:56.424Z,17.73
2017-12-14T06:23:56.381Z,21.24
2017-12-14T06:24:56.347Z,23.80
2017-12-14T06:25:56.303Z,25.51
2017-12-14T06:26:56.259Z,22.09
2017-12-14T06:27:56.238Z,22.00
2017-12-14T06:28:56.174Z,17.45
2017-12-14T06:29:56.143Z,12.61
2017-12-14T06:30:56.095Z,19.44
2017-12-14T06:31:56.056Z,23.52
2017-12-14T06:32:56.023Z,26.55
2017-12-14T06:33:55.972Z,26.36
2017-12-14T06:34:55.929Z,20.77
2017-12-14T06:35:55.887Z,13.46
2017-12-14T06:36:55.855Z,25.60
2017-12-14T06:37:55.805Z,16.41
2017-12-14T06:38:55.766Z,21.24
2017-12-14T06:39:55.727Z,16.22
2017-12-14T06:40:55.685Z,17.16
2017-12-14T06:41:55.641Z,21.91
2017-12-14T06:42:55.607Z,18.77
2017-12-14T06:43:55.561Z,12.99
2017-12-14T06:44:55.520Z,8.63
2017-12-14T06:45:55.481Z,12.80
2017-12-14T06:46:55.446Z,9.29
2017-12-14T06:47:55.398Z,12.61
2017-12-14T06:48:55.363Z,5.78
2017-12-14T06:49:55.315Z,12.80
2017-12-14T06:50:55.294Z,9.10
2017-12-14T06:51:55.239Z,15.55
2017-12-14T06:52:55.208Z,13.56
2017-12-14T06:53:55.148Z,7.87
2017-12-14T06:54:55.109Z,3.89
2017-12-14T06:55:55.068Z,4.17
2017-12-14T06:56:55.026Z,4.08
2017-12-14T06:57:54.986Z,7.01
2017-12-14T06:58:54.944Z,4.17
2017-12-14T06:59:54.909Z,0.47
2017-12-14T07:00:54.863Z,2.56
2017-12-14T07:01:54.824Z,8.34
2017-12-14T07:02:54.785Z,3.31
2017-12-14T07:03:54.760Z,4.83
2017-12-14T07:04:54.716Z,2.27
2017-12-14T07:05:54.654Z,0.00
2017-12-14T07:06:54.622Z,1.51
2017-12-14T07:07:54.581Z,6.26
2017-12-14T07:08:54.533Z,10.05
2017-12-14T07:09:54.853Z,8.34
2017-12-14T07:10:54.454Z,4.83
2017-12-14T07:11:54.419Z,10.14
2017-12-14T07:12:54.370Z,9.48
2017-12-14T07:13:54.332Z,12.42
2017-12-14T07:14:54.326Z,8.25
2017-12-14T07:15:54.248Z,7.59
2017-12-14T07:16:54.240Z,8.44
2017-12-14T07:17:54.168Z,7.20
2017-12-14T07:18:54.117Z,13.94
2017-12-14T07:19:54.079Z,9.86
2017-12-14T07:20:54.038Z,10.05
2017-12-14T07:21:54.004Z,11.00
2017-12-14T07:22:53.962Z,8.82
2017-12-14T07:23:53.922Z,15.55
2017-12-14T07:24:53.877Z,11.85
2017-12-14T07:25:53.849Z,12.71
2017-12-14T07:26:53.790Z,12.61
2017-12-14T07:27:53.777Z,16.12
2017-12-14T07:28:53.741Z,10.62
2017-12-14T07:29:53.678Z,12.14
2017-12-14T07:30:53.626Z,20.01
2017-12-14T07:31:53.607Z,16.69
2017-12-14T07:32:53.553Z,17.92
2017-12-14T07:33:53.508Z,28.45
2017-12-14T07:34:53.464Z,20.29
2017-12-14T07:35:53.422Z,18.96
2017-12-14T07:36:53.378Z,14.41
2017-12-14T07:37:53.339Z,25.98
2017-12-14T07:38:53.296Z,24.94
2017-12-14T07:39:53.255Z,37.46
2017-12-14T07:40:53.216Z,32.71
2017-12-14T07:41:53.174Z,37.27
2017-12-14T07:42:53.133Z,27.40
2017-12-14T07:43:53.120Z,37.55
2017-12-14T07:44:53.056Z,41.06
2017-12-14T07:45:53.008Z,39.36
2017-12-14T07:46:52.975Z,42.49
2017-12-14T07:47:52.994Z,36.61
2017-12-14T07:48:52.882Z,37.84
2017-12-14T07:49:52.840Z,33.57
2017-12-14T07:50:52.812Z,34.42
2017-12-14T07:51:52.761Z,32.24
2017-12-14T07:52:52.718Z,34.23
2017-12-14T07:53:52.677Z,35.09
2017-12-14T07:54:52.637Z,35.47
2017-12-14T07:55:52.606Z,35.47
2017-12-14T07:56:52.553Z,40.21
2017-12-14T07:57:52.516Z,31.87
2017-12-14T07:58:52.478Z,29.40
2017-12-14T07:59:52.430Z,22.28
2017-12-14T08:00:52.397Z,21.72
2017-12-14T08:01:52.348Z,32.24
2017-12-14T08:02:52.310Z,23.90
2017-12-14T08:03:52.267Z,21.91
2017-12-14T08:04:52.227Z,25.13
2017-12-14T08:05:52.186Z,38.41
2017-12-14T08:06:52.166Z,40.02
2017-12-14T08:07:52.103Z,36.04
2017-12-14T08:08:52.072Z,24.94
2017-12-14T08:09:52.020Z,26.84
2017-12-14T08:10:51.979Z,38.50
2017-12-14T08:11:51.939Z,30.35
2017-12-14T08:12:51.905Z,37.84
2017-12-14T08:13:51.866Z,33.48
2017-12-14T08:14:51.821Z,25.60
2017-12-14T08:15:51.779Z,26.27
2017-12-14T08:16:51.760Z,23.43
2017-12-14T08:17:51.696Z,23.24
2017-12-14T08:18:51.655Z,25.23
2017-12-14T08:19:51.631Z,33.19
2017-12-14T08:20:51.574Z,29.02
2017-12-14T08:21:51.529Z,42.30
2017-12-14T08:22:51.493Z,40.31
2017-12-14T08:23:51.497Z,31.58
2017-12-14T08:24:51.413Z,31.48
2017-12-14T08:25:51.364Z,30.54
2017-12-14T08:26:51.326Z,21.15
2017-12-14T08:27:51.293Z,35.28
2017-12-14T08:28:51.266Z,36.51
2017-12-14T08:29:51.203Z,36.42
2017-12-14T08:30:51.160Z,37.65
2017-12-14T08:31:51.119Z,29.59
2017-12-14T08:32:51.080Z,34.23
2017-12-14T08:33:51.040Z,37.08
2017-12-14T08:34:50.999Z,40.78
2017-12-14T08:35:50.962Z,36.04
2017-12-14T08:36:50.916Z,35.18
2017-12-14T08:37:50.885Z,38.31
2017-12-14T08:38:50.834Z,26.75
2017-12-14T08:39:50.793Z,27.12
2017-12-14T08:40:50.766Z,38.31
2017-12-14T08:41:50.714Z,25.89
2017-12-14T08:42:50.675Z,29.68
2017-12-14T08:43:50.628Z,45.33
2017-12-14T08:44:50.589Z,43.53
2017-12-14T08:45:50.553Z,29.21
2017-12-14T08:46:50.506Z,31.01
2017-12-14T08:47:50.474Z,32.34
2017-12-14T08:48:50.448Z,23.80
2017-12-14T08:49:50.390Z,22.57
2017-12-14T08:50:50.351Z,22.00
2017-12-14T08:51:50.303Z,21.43
2017-12-14T08:52:50.262Z,23.24
2017-12-14T08:53:50.218Z,22.76
2017-12-14T08:54:50.180Z,23.53
2017-12-14T08:55:50.139Z,41.35
2017-12-14T08:56:50.096Z,50.17
2017-12-14T08:57:50.060Z,49.41
2017-12-14T08:58:50.037Z,48.75
2017-12-14T08:59:49.977Z,46.28
2017-12-14T09:00:49.936Z,37.74
2017-12-14T09:01:49.895Z,50.26
2017-12-14T09:02:49.864Z,46.56
2017-12-14T09:03:49.810Z,33.00
2017-12-14T09:04:49.772Z,25.90
2017-12-14T09:05:49.732Z,37.37
2017-12-14T09:06:49.698Z,49.13
2017-12-14T09:07:49.652Z,46.47
2017-12-14T09:08:49.610Z,48.36
2017-12-14T09:09:49.574Z,49.03
2017-12-14T09:10:49.533Z,35.38
2017-12-14T09:11:49.488Z,30.82
2017-12-14T09:12:49.445Z,30.74
2017-12-14T09:13:49.404Z,25.70
2017-12-14T09:14:49.364Z,34.90
2017-12-14T09:15:49.323Z,39.76
2017-12-14T09:16:49.281Z,42.13
2017-12-14T09:17:49.250Z,43.82
2017-12-14T09:18:49.200Z,45.90
2017-12-14T09:19:49.162Z,30.27
2017-12-14T09:20:49.124Z,37.01
2017-12-14T09:21:49.078Z,40.14
2017-12-14T09:22:49.045Z,48.30
2017-12-14T09:23:49.003Z,40.52
2017-12-14T09:24:48.960Z,52.00
2017-12-14T09:25:48.915Z,58.17
2017-12-14T09:26:48.876Z,56.74
2017-12-14T09:27:48.838Z,56.15
2017-12-14T09:28:48.794Z,43.65
2017-12-14T09:29:48.760Z,37.01
2017-12-14T09:30:48.722Z,46.30
2017-12-14T09:31:48.674Z,41.37
2017-12-14T09:32:48.633Z,41.94
2017-12-14T09:33:48.592Z,50.95
2017-12-14T09:34:48.552Z,48.49
2017-12-14T09:35:48.514Z,48.01
2017-12-14T09:36:48.471Z,54.94
2017-12-14T09:37:48.432Z,40.52
2017-12-14T09:38:48.392Z,32.54
2017-12-14T09:39:48.351Z,34.63
2017-12-14T09:40:48.376Z,39.37
2017-12-14T09:41:48.315Z,52.19
2017-12-14T09:42:48.234Z,44.69
2017-12-14T09:43:48.191Z,49.34
2017-12-14T09:44:48.149Z,56.93
2017-12-14T09:45:48.107Z,43.36
2017-12-14T09:46:48.074Z,44.79
2017-12-14T09:47:48.038Z,44.60
2017-12-14T09:48:48.008Z,45.64
2017-12-14T09:49:47.947Z,46.49
2017-12-14T09:50:47.904Z,53.70
2017-12-14T09:51:47.866Z,49.72
2017-12-14T09:52:47.851Z,57.21
2017-12-14T09:53:47.791Z,49.15
2017-12-14T09:54:47.751Z,55.22
2017-12-14T09:55:47.708Z,56.46
2017-12-14T09:56:47.670Z,54.75
2017-12-14T09:57:47.621Z,53.80
2017-12-14T09:58:47.581Z,60.73
2017-12-14T09:59:47.550Z,48.86
2017-12-14T10:00:48.241Z,51.90
2017-12-14T10:01:47.471Z,65.56
2017-12-14T10:02:47.427Z,64.14
2017-12-14T10:03:47.384Z,59.68
2017-12-14T10:04:47.346Z,61.96
2017-12-14T10:05:47.306Z,64.24
2017-12-14T10:06:47.261Z,55.22
2017-12-14T10:07:47.217Z,54.56
2017-12-14T10:08:47.226Z,61.77
2017-12-14T10:09:47.140Z,64.90
2017-12-14T10:10:47.100Z,59.59
2017-12-14T10:11:47.069Z,60.16
2017-12-14T10:12:47.017Z,68.04
2017-12-14T10:13:46.982Z,57.98
2017-12-14T10:14:46.940Z,67.94
2017-12-14T10:17:17.421Z,62.46
2017-12-14T10:18:17.380Z,64.46
2017-12-14T10:20:09.232Z,61.99
2017-12-14T10:21:09.207Z,67.94
2017-12-14T10:23:03.002Z,67.88
2017-12-14T10:24:02.939Z,63.20
2017-12-14T10:25:54.765Z,73.19
2017-12-14T10:26:54.707Z,62.62
2017-12-14T10:28:46.514Z,72.25
2017-12-14T10:29:46.469Z,72.81
2017-12-14T10:31:38.316Z,76.52
2017-12-14T10:32:38.270Z,61.33
2017-12-14T10:34:30.108Z,68.35
2017-12-14T10:35:30.049Z,77.66
2017-12-14T10:37:21.864Z,68.07
2017-12-14T10:38:21.829Z,73.00
2017-12-14T10:40:14.504Z,79.46
2017-12-14T10:41:13.779Z,77.56
2017-12-14T10:43:05.634Z,67.69
2017-12-14T10:44:05.584Z,78.19
2017-12-14T10:45:57.493Z,70.98
2017-12-14T10:46:57.964Z,71.55
2017-12-14T10:48:49.146Z,63.67
2017-12-14T10:49:49.102Z,62.43
2017-12-14T10:51:40.946Z,62.43
2017-12-14T10:52:40.868Z,66.71
2017-12-14T10:54:32.676Z,69.93
2017-12-14T10:55:32.621Z,65.47
2017-12-14T10:57:24.703Z,74.39
2017-12-14T10:58:24.378Z,76.20
2017-12-14T11:00:16.179Z,65.56
2017-12-14T11:01:16.129Z,65.75
2017-12-14T11:03:08.232Z,73.63
2017-12-14T11:04:07.890Z,72.02
2017-12-14T11:05:59.721Z,65.85
2017-12-14T11:06:59.640Z,71.64
2017-12-14T11:08:51.732Z,71.55
2017-12-14T11:09:51.406Z,66.04
2017-12-14T11:11:43.214Z,68.79
2017-12-14T11:12:43.168Z,74.96
2017-12-14T11:14:34.989Z,72.25
2017-12-14T11:15:34.935Z,71.73
2017-12-14T11:17:26.760Z,76.57
2017-12-14T11:18:26.689Z,68.79
2017-12-14T11:20:18.792Z,71.55
2017-12-14T11:21:18.462Z,67.94
2017-12-14T11:23:10.262Z,71.73
2017-12-14T11:24:10.221Z,68.64
2017-12-14T11:26:02.764Z,74.62
2017-12-14T11:27:02.032Z,74.49
2017-12-14T11:28:53.831Z,69.96
2017-12-14T11:29:53.767Z,71.20
2017-12-14T11:31:45.592Z,68.26
2017-12-14T11:32:45.534Z,72.06
2017-12-14T11:34:37.355Z,74.96
2017-12-14T11:35:37.319Z,77.18
2017-12-14T11:37:29.403Z,69.59
2017-12-14T11:38:29.070Z,78.32
2017-12-14T11:40:20.880Z,71.67
2017-12-14T11:41:20.829Z,69.49
2017-12-14T11:43:12.635Z,74.39
2017-12-14T11:44:12.586Z,71.55
2017-12-14T11:46:04.382Z,69.93
2017-12-14T11:47:04.337Z,71.36
2017-12-14T11:48:56.782Z,70.59
2017-12-14T11:49:56.367Z,64.81
2017-12-14T11:51:48.112Z,63.76
2017-12-14T11:52:48.077Z,67.85
2017-12-14T11:54:40.207Z,63.39
2017-12-14T11:55:39.888Z,68.04
2017-12-14T11:57:31.683Z,59.59
2017-12-14T11:58:31.641Z,63.86
2017-12-14T12:00:23.464Z,64.71
2017-12-14T12:01:23.396Z,58.54
2017-12-14T12:03:15.194Z,60.73
2017-12-14T12:04:15.151Z,57.69
2017-12-14T12:06:06.963Z,60.82
2017-12-14T12:07:06.960Z,66.61
2017-12-14T12:08:58.724Z,58.64
2017-12-14T12:09:58.676Z,65.37
2017-12-14T12:11:50.904Z,59.78
2017-12-14T12:12:50.474Z,64.52
2017-12-14T12:14:42.316Z,59.88
2017-12-14T12:15:42.264Z,64.37
2017-12-14T12:17:34.053Z,68.98
2017-12-14T12:18:34.001Z,71.77
2017-12-14T12:20:25.833Z,68.83
2017-12-14T12:21:25.802Z,74.11
2017-12-14T12:23:18.195Z,70.50
2017-12-14T12:24:17.575Z,69.55
2017-12-14T12:26:09.409Z,73.25
2017-12-14T12:27:09.361Z,65.47
2017-12-14T12:29:01.478Z,75.43
2017-12-14T12:30:01.153Z,67.08
2017-12-14T12:31:52.989Z,73.07
2017-12-14T12:32:52.922Z,63.86
2017-12-14T12:34:44.755Z,63.57
2017-12-14T12:35:44.679Z,66.52
2017-12-14T12:37:36.477Z,63.29
2017-12-14T12:38:36.433Z,66.52
2017-12-14T12:40:28.282Z,59.59
2017-12-14T12:41:28.233Z,60.63
2017-12-14T12:43:20.030Z,71.36
2017-12-14T12:44:19.988Z,61.20
2017-12-14T12:46:12.097Z,64.24
2017-12-14T12:47:11.764Z,71.92
2017-12-14T12:49:03.558Z,65.47
2017-12-14T12:50:03.512Z,63.39
2017-12-14T12:51:56.334Z,67.94
2017-12-14T12:52:55.877Z,68.60
2017-12-14T12:54:47.676Z,67.94
2017-12-14T12:55:47.637Z,63.48
2017-12-14T12:57:39.440Z,68.41
2017-12-14T12:58:39.388Z,68.32
2017-12-14T13:00:31.201Z,69.93
2017-12-14T13:01:31.162Z,70.78
2017-12-14T13:03:23.241Z,78.09
2017-12-14T13:04:22.915Z,73.07
2017-12-14T13:06:14.720Z,82.46
2017-12-14T13:07:14.683Z,79.04
2017-12-14T13:09:06.480Z,72.49
2017-12-14T13:10:06.432Z,79.42
2017-12-14T13:11:58.236Z,76.29
2017-12-14T13:12:58.182Z,75.72
2017-12-14T13:14:50.016Z,81.60
2017-12-14T13:15:49.965Z,78.95
2017-12-14T13:17:41.790Z,71.64
2017-12-14T13:18:41.701Z,81.32
2017-12-14T13:20:33.816Z,76.10
2017-12-14T13:21:33.488Z,77.14
2017-12-14T13:23:25.308Z,74.58
2017-12-14T13:24:25.261Z,73.35
2017-12-14T13:26:17.125Z,77.62
2017-12-14T13:27:17.070Z,73.25
2017-12-14T13:29:08.873Z,79.90
2017-12-14T13:30:08.833Z,77.81
2017-12-14T13:32:00.673Z,82.36
2017-12-14T13:33:00.620Z,81.98
2017-12-14T13:34:52.445Z,81.70
2017-12-14T13:35:52.412Z,77.62
2017-12-14T13:37:44.477Z,79.04
2017-12-14T13:38:44.143Z,80.08
2017-12-14T13:40:36.563Z,81.41
2017-12-14T13:41:36.110Z,81.04
2017-12-14T13:43:27.923Z,85.30
2017-12-14T13:44:27.886Z,80.94
2017-12-14T13:46:19.709Z,83.69
2017-12-14T13:47:19.662Z,80.94
2017-12-14T13:49:11.753Z,81.56
2017-12-14T13:50:11.422Z,83.12
2017-12-14T13:52:03.231Z,80.08
2017-12-14T13:53:03.174Z,78.66
2017-12-14T13:54:55.272Z,89.10
2017-12-14T13:55:54.973Z,86.16
2017-12-14T13:57:46.751Z,85.02
2017-12-14T13:58:46.711Z,80.18
2017-12-14T14:00:38.546Z,82.55
2017-12-14T14:01:38.486Z,73.92
2017-12-14T14:03:30.290Z,79.76
2017-12-14T14:04:30.244Z,77.67
2017-12-14T14:06:22.345Z,77.77
2017-12-14T14:07:21.990Z,80.52
2017-12-14T14:09:13.816Z,77.20
2017-12-14T14:10:13.744Z,72.36
2017-12-14T14:12:05.820Z,79.66
2017-12-14T14:13:05.508Z,74.73
2017-12-14T14:14:57.308Z,77.77